createdAt,value
2023-05-04T00:02:26.445Z,17.80
2023-05-04T00:04:55.130Z,15.77
2023-05-04T00:07:23.922Z,17.80
2023-05-04T00:09:52.724Z,13.45
2023-05-04T00:12:21.312Z,12.25
2023-05-04T00:14:50.065Z,12.43
2023-05-04T00:17:21.474Z,20.65
2023-05-04T00:19:49.482Z,10.88
2023-05-04T00:22:18.379Z,10.65
2023-05-04T00:24:47.278Z,24.45
2023-05-04T00:27:15.910Z,15.68
2023-05-04T00:29:44.543Z,12.13
2023-05-04T00:32:12.688Z,14.20
2023-05-04T00:34:41.353Z,11.40
2023-05-04T00:37:09.472Z,14.40
2023-05-04T00:39:38.142Z,12.48
2023-05-04T00:42:06.776Z,22.63
2023-05-04T00:44:36.091Z,11.65
2023-05-04T00:47:06.142Z,15.10
2023-05-04T00:49:35.074Z,15.73
2023-05-04T00:52:04.964Z,15.90
2023-05-04T00:54:34.299Z,17.08
2023-05-04T00:57:03.262Z,10.07
2023-05-04T00:59:32.099Z,16.75
2023-05-04T01:02:01.143Z,13.18
2023-05-04T01:04:29.923Z,13.38
2023-05-04T01:07:20.956Z,16.63
2023-05-04T01:10:01.756Z,11.20
2023-05-04T01:12:42.506Z,13.43
2023-05-04T01:15:12.143Z,14.13
2023-05-04T01:17:40.950Z,24.25
2023-05-04T01:20:10.561Z,20.10
2023-05-04T01:22:41.242Z,14.88
2023-05-04T01:25:10.402Z,19.88
2023-05-04T01:27:44.676Z,18.77
2023-05-04T01:30:38.842Z,18.52
2023-05-04T01:33:09.405Z,16.80
2023-05-04T01:35:38.848Z,18.20
2023-05-04T01:38:07.766Z,21.20
2023-05-04T01:40:35.673Z,29.00
2023-05-04T01:43:04.311Z,20.35
2023-05-04T01:45:32.939Z,20.88
2023-05-04T01:48:01.816Z,21.40
2023-05-04T01:50:30.489Z,28.85
2023-05-04T01:52:58.376Z,26.63
2023-05-04T01:55:27.909Z,11.57
2023-05-04T01:57:56.563Z,17.52
2023-05-04T02:00:25.687Z,18.70
2023-05-04T02:02:54.376Z,24.98
2023-05-04T02:05:23.213Z,17.67
2023-05-04T02:07:51.873Z,18.98
2023-05-04T02:10:20.516Z,19.00
2023-05-04T02:12:49.212Z,18.70
2023-05-04T02:15:17.986Z,27.35
2023-05-04T02:17:46.541Z,16.13
2023-05-04T02:20:15.520Z,28.10
2023-05-04T02:22:43.473Z,16.67
2023-05-04T02:25:12.087Z,20.65
2023-05-04T02:27:40.542Z,35.45
2023-05-04T02:30:15.856Z,17.27
2023-05-04T02:32:44.130Z,25.85
2023-05-04T02:35:25.048Z,26.65
2023-05-04T02:40:40.224Z,18.50
2023-05-04T02:43:08.472Z,17.85
2023-05-04T02:45:37.880Z,15.60
2023-05-04T02:48:06.702Z,20.40
2023-05-04T02:50:35.541Z,14.52
2023-05-04T02:53:05.029Z,22.05
2023-05-04T02:55:33.388Z,18.75
2023-05-04T02:58:02.744Z,17.17
2023-05-04T03:00:31.685Z,19.55
2023-05-04T03:03:01.304Z,15.35
2023-05-04T03:05:30.074Z,14.82
2023-05-04T03:07:58.637Z,10.18
2023-05-04T03:10:27.205Z,12.02
2023-05-04T03:12:55.323Z,19.20
2023-05-04T03:15:23.324Z,13.73
2023-05-04T03:17:52.270Z,11.20
2023-05-04T03:20:21.086Z,19.15
2023-05-04T03:22:49.205Z,21.83
2023-05-04T03:25:17.945Z,12.05
2023-05-04T03:27:46.539Z,15.63
2023-05-04T03:30:15.422Z,20.85
2023-05-04T03:32:43.877Z,17.30
2023-05-04T03:35:12.512Z,14.82
2023-05-04T03:37:40.887Z,17.63
2023-05-04T03:40:10.217Z,12.68
2023-05-04T03:42:39.522Z,11.60
2023-05-04T03:45:08.191Z,11.95
2023-05-04T03:47:37.058Z,14.13
2023-05-04T03:50:06.076Z,11.25
2023-05-04T03:52:35.034Z,14.60
2023-05-04T03:55:03.765Z,18.65
2023-05-04T03:57:32.182Z,12.27
2023-05-04T04:00:01.066Z,18.35
2023-05-04T04:02:29.879Z,15.88
2023-05-04T04:04:58.587Z,20.30
2023-05-04T04:07:27.229Z,17.75
2023-05-04T04:09:55.921Z,19.00
2023-05-04T04:12:24.536Z,19.52
2023-05-04T04:14:56.019Z,17.80
2023-05-04T04:17:24.658Z,20.77
2023-05-04T04:19:53.318Z,17.30
2023-05-04T04:22:22.063Z,18.33
2023-05-04T04:24:50.023Z,17.73
2023-05-04T04:27:18.875Z,21.65
2023-05-04T04:29:47.585Z,19.73
2023-05-04T04:32:16.530Z,20.92
2023-05-04T04:34:45.674Z,22.25
2023-05-04T04:37:14.502Z,20.33
2023-05-04T04:39:43.647Z,17.48
2023-05-04T04:42:13.045Z,19.17
2023-05-04T04:44:42.251Z,19.15
2023-05-04T04:47:13.668Z,15.90
2023-05-04T04:49:42.304Z,29.85
2023-05-04T04:52:12.280Z,20.48
2023-05-04T04:54:40.313Z,27.77
2023-05-04T04:57:08.991Z,31.13
2023-05-04T04:59:39.388Z,28.55
2023-05-04T05:02:08.215Z,26.33
2023-05-04T05:04:37.193Z,20.00
2023-05-04T05:07:05.529Z,22.38
2023-05-04T05:09:34.136Z,28.38
2023-05-04T05:12:02.754Z,20.00
2023-05-04T05:14:33.025Z,27.75
2023-05-04T05:17:01.741Z,30.15
2023-05-04T05:19:30.405Z,24.95
2023-05-04T05:21:59.905Z,27.10
2023-05-04T05:24:28.523Z,35.75
2023-05-04T05:26:57.063Z,26.50
2023-05-04T05:29:26.540Z,25.48
2023-05-04T05:31:55.060Z,32.97
2023-05-04T05:34:22.979Z,23.33
2023-05-04T05:36:51.582Z,30.33
2023-05-04T05:39:20.254Z,20.30
2023-05-04T05:41:48.877Z,21.00
2023-05-04T05:44:17.291Z,28.60
2023-05-04T05:46:45.745Z,23.23
2023-05-04T05:49:13.958Z,17.08
2023-05-04T05:51:42.960Z,19.63
2023-05-04T05:54:11.558Z,18.88
2023-05-04T05:56:39.834Z,15.90
2023-05-04T05:59:08.594Z,22.23
2023-05-04T06:01:37.206Z,17.80
2023-05-04T06:04:06.089Z,21.20
2023-05-04T06:06:35.061Z,19.27
2023-05-04T06:09:03.317Z,21.40
2023-05-04T06:11:32.787Z,19.50
2023-05-04T06:14:01.645Z,22.60
2023-05-04T06:16:30.458Z,19.80
2023-05-04T06:18:59.148Z,18.88
2023-05-04T06:21:28.734Z,17.05
2023-05-04T06:23:57.250Z,21.25
2023-05-04T06:26:26.990Z,14.30
2023-05-04T06:28:55.278Z,15.85
2023-05-04T06:31:25.543Z,30.85
2023-05-04T06:33:54.179Z,13.82
2023-05-04T06:36:23.225Z,21.17
2023-05-04T06:38:51.846Z,20.70
2023-05-04T06:41:20.532Z,23.10
2023-05-04T06:43:50.459Z,17.50
2023-05-04T06:46:19.157Z,20.63
2023-05-04T06:48:47.778Z,16.33
2023-05-04T06:51:17.514Z,17.33
2023-05-04T06:53:47.105Z,19.55
2023-05-04T06:56:15.367Z,15.00
2023-05-04T06:58:44.154Z,18.63
2023-05-04T07:01:14.842Z,14.48
2023-05-04T07:03:45.080Z,20.58
2023-05-04T07:06:13.818Z,22.88
2023-05-04T07:08:42.482Z,21.13
2023-05-04T07:11:11.888Z,18.90
2023-05-04T07:13:40.562Z,16.58
2023-05-04T07:16:10.149Z,18.60
2023-05-04T07:18:40.285Z,17.83
2023-05-04T07:21:27.756Z,24.13
2023-05-04T07:23:58.937Z,17.73
2023-05-04T07:26:27.714Z,24.75
2023-05-04T07:28:56.390Z,24.92
2023-05-04T07:31:25.118Z,19.48
2023-05-04T07:33:53.772Z,18.73
2023-05-04T07:36:22.360Z,17.80
2023-05-04T07:38:50.975Z,23.98
2023-05-04T07:41:19.521Z,19.73
2023-05-04T07:43:48.454Z,29.63
2023-05-04T07:46:17.781Z,18.75
2023-05-04T07:48:46.414Z,14.27
2023-05-04T07:51:16.316Z,21.65
2023-05-04T07:53:45.194Z,18.70
2023-05-04T07:56:15.074Z,19.60
2023-05-04T07:58:43.845Z,15.50
2023-05-04T08:01:12.825Z,12.63
2023-05-04T08:03:41.424Z,21.42
2023-05-04T08:06:10.202Z,22.80
2023-05-04T08:08:39.803Z,17.42
2023-05-04T08:11:19.203Z,13.20
2023-05-04T08:13:50.905Z,17.52
2023-05-04T08:16:19.680Z,18.98
2023-05-04T08:18:48.305Z,17.67
2023-05-04T08:21:16.966Z,19.42
2023-05-04T08:23:45.481Z,16.85
2023-05-04T08:26:13.618Z,23.50
2023-05-04T08:28:42.618Z,16.40
2023-05-04T08:31:11.359Z,21.65
2023-05-04T08:33:41.299Z,19.65
2023-05-04T08:36:10.822Z,24.13
2023-05-04T08:38:39.451Z,20.63
2023-05-04T08:41:08.864Z,14.18
2023-05-04T08:43:38.515Z,11.70
2023-05-04T08:46:08.302Z,24.95
2023-05-04T08:48:38.338Z,23.50
2023-05-04T08:51:08.699Z,21.88
2023-05-04T08:53:39.322Z,25.48
2023-05-04T08:56:13.942Z,24.30
2023-05-04T08:58:53.509Z,30.48
2023-05-04T09:01:23.500Z,35.20
2023-05-04T09:03:53.789Z,31.23
2023-05-04T09:06:22.976Z,42.55
2023-05-04T09:08:51.588Z,33.83
2023-05-04T09:11:20.229Z,24.98
2023-05-04T09:13:49.261Z,25.30
2023-05-04T09:16:17.963Z,26.42
2023-05-04T09:18:47.223Z,23.80
2023-05-04T09:21:15.905Z,27.38
2023-05-04T09:23:52.671Z,27.58
2023-05-04T09:26:34.952Z,39.28
2023-05-04T09:29:17.217Z,36.38
2023-05-04T09:31:52.954Z,20.23
2023-05-04T09:34:24.813Z,17.85
2023-05-04T09:37:03.861Z,23.25
2023-05-04T09:39:32.512Z,27.60
2023-05-04T09:42:01.939Z,32.67
2023-05-04T09:44:30.195Z,23.23
2023-05-04T09:47:00.309Z,25.88
2023-05-04T09:49:36.010Z,16.92
2023-05-04T09:52:06.374Z,22.58
2023-05-04T09:54:37.587Z,23.50
2023-05-04T09:57:16.589Z,32.40
2023-05-04T09:59:45.245Z,22.10
2023-05-04T10:02:22.621Z,21.98
2023-05-04T10:04:54.393Z,26.35
2023-05-04T10:07:23.892Z,16.70
2023-05-04T10:09:52.531Z,26.30
2023-05-04T10:12:21.354Z,18.48
2023-05-04T10:14:49.960Z,20.10
2023-05-04T10:17:33.858Z,19.00
2023-05-04T10:20:21.201Z,20.77
2023-05-04T10:23:26.685Z,19.50
2023-05-04T10:26:23.776Z,18.40
2023-05-04T10:29:23.719Z,22.50
2023-05-04T10:31:54.668Z,20.40
2023-05-04T10:34:36.708Z,28.05
2023-05-04T10:37:08.248Z,22.58
2023-05-04T10:39:37.529Z,23.05
2023-05-04T10:42:10.012Z,23.63
2023-05-04T10:44:57.035Z,22.58
2023-05-04T10:47:35.963Z,20.85
2023-05-04T10:50:05.932Z,31.88
2023-05-04T10:52:47.394Z,24.80
2023-05-04T10:55:17.110Z,34.75
2023-05-04T10:57:57.173Z,21.70
2023-05-04T11:00:38.867Z,20.75
2023-05-04T11:03:09.001Z,16.75
2023-05-04T11:05:48.263Z,23.20
2023-05-04T11:08:25.563Z,17.30
2023-05-04T11:11:11.654Z,23.02
2023-05-04T11:13:50.505Z,23.92
2023-05-04T11:16:27.633Z,19.75
2023-05-04T11:18:56.855Z,20.17
2023-05-04T11:21:29.568Z,26.17
2023-05-04T11:24:03.248Z,21.75
2023-05-04T11:26:31.946Z,17.50
2023-05-04T11:29:00.479Z,20.08
2023-05-04T11:31:29.382Z,16.92
2023-05-04T11:33:58.237Z,16.45
2023-05-04T11:36:27.338Z,16.60
2023-05-04T11:38:58.481Z,9.30
2023-05-04T11:41:31.150Z,16.23
2023-05-04T11:44:01.930Z,22.52
2023-05-04T11:46:31.563Z,17.70
2023-05-04T11:49:02.331Z,15.48
2023-05-04T11:51:32.291Z,15.20
2023-05-04T11:54:02.620Z,11.43
2023-05-04T11:56:30.748Z,20.60
2023-05-04T11:59:10.066Z,17.70
2023-05-04T12:01:38.732Z,23.35
2023-05-04T12:04:07.689Z,21.63
2023-05-04T12:06:36.526Z,20.98
2023-05-04T12:09:07.396Z,18.58
2023-05-04T12:11:36.961Z,25.65
2023-05-04T12:14:10.957Z,22.13
2023-05-04T12:16:40.312Z,24.50
2023-05-04T12:19:14.021Z,13.52
2023-05-04T12:21:54.503Z,21.15
2023-05-04T12:24:23.929Z,15.18
2023-05-04T12:26:52.964Z,22.48
2023-05-04T12:29:21.183Z,18.17
2023-05-04T12:31:49.848Z,26.90
2023-05-04T12:34:18.522Z,14.98
2023-05-04T12:36:47.711Z,27.05
2023-05-04T12:39:16.254Z,21.05
2023-05-04T12:41:44.893Z,17.75
2023-05-04T12:44:15.703Z,23.55
2023-05-04T12:46:44.586Z,18.88
2023-05-04T12:49:14.165Z,18.85
2023-05-04T12:51:42.583Z,12.65
2023-05-04T12:54:11.269Z,18.40
2023-05-04T12:56:41.143Z,15.85
2023-05-04T12:59:09.824Z,15.45
2023-05-04T13:01:38.476Z,16.27
2023-05-04T13:04:07.177Z,15.95
2023-05-04T13:06:38.714Z,20.98
2023-05-04T13:09:07.964Z,20.25
2023-05-04T13:11:36.881Z,14.05
2023-05-04T13:14:05.673Z,22.95
2023-05-04T13:16:34.579Z,33.08
2023-05-04T13:19:03.470Z,27.08
2023-05-04T13:21:32.382Z,34.13
2023-05-04T13:24:01.917Z,27.35
2023-05-04T13:26:30.581Z,38.83
2023-05-04T13:28:59.306Z,29.33
2023-05-04T13:31:28.234Z,21.40
2023-05-04T13:33:56.894Z,35.60
2023-05-04T13:36:25.608Z,28.08
2023-05-04T13:38:54.248Z,25.42
2023-05-04T13:41:23.246Z,36.95
2023-05-04T13:43:51.977Z,31.38
2023-05-04T13:46:20.599Z,25.05
2023-05-04T13:48:49.258Z,33.78
2023-05-04T13:51:18.064Z,24.60
2023-05-04T13:53:46.680Z,45.60
2023-05-04T13:56:15.362Z,40.60
2023-05-04T13:58:44.150Z,33.20
2023-05-04T14:01:15.740Z,49.58
2023-05-04T14:03:44.620Z,32.83
2023-05-04T14:06:13.314Z,36.20
2023-05-04T14:08:42.158Z,31.55
2023-05-04T14:11:10.797Z,34.38
2023-05-04T14:13:39.165Z,29.38
2023-05-04T14:16:08.306Z,25.42
2023-05-04T14:18:37.022Z,38.13
2023-05-04T14:21:05.732Z,18.17
2023-05-04T14:23:34.359Z,17.42
2023-05-04T14:26:04.088Z,14.02
2023-05-04T14:28:33.000Z,35.50
2023-05-04T14:31:09.670Z,22.40
2023-05-04T14:33:40.451Z,20.75
2023-05-04T14:36:09.882Z,29.80
2023-05-04T14:38:38.270Z,20.50
2023-05-04T14:41:08.603Z,23.55
2023-05-04T14:43:36.992Z,21.42
2023-05-04T14:46:05.621Z,29.55
2023-05-04T14:48:34.221Z,30.88
2023-05-04T14:51:02.623Z,26.92
2023-05-04T14:53:36.180Z,24.55
2023-05-04T14:56:06.075Z,28.63
2023-05-04T14:58:34.814Z,36.47
2023-05-04T15:01:03.382Z,30.30
2023-05-04T15:03:32.060Z,33.97
2023-05-04T15:06:00.749Z,40.58
2023-05-04T15:08:29.367Z,31.92
2023-05-04T15:11:01.403Z,37.05
2023-05-04T15:13:31.792Z,30.50
2023-05-04T15:16:00.402Z,27.23
2023-05-04T15:18:29.314Z,35.65
2023-05-04T15:20:57.857Z,32.40
2023-05-04T15:23:26.503Z,34.13
2023-05-04T15:25:55.176Z,20.33
2023-05-04T15:28:23.804Z,26.20
2023-05-04T15:30:52.388Z,27.98
2023-05-04T15:33:20.554Z,19.02
2023-05-04T15:35:49.166Z,17.73
2023-05-04T15:38:18.682Z,23.23
2023-05-04T15:40:46.910Z,36.22
2023-05-04T15:43:16.624Z,21.60
2023-05-04T15:45:45.251Z,24.23
2023-05-04T15:48:13.466Z,21.58
2023-05-04T15:50:41.798Z,17.08
2023-05-04T15:53:10.392Z,22.05
2023-05-04T15:55:38.678Z,17.38
2023-05-04T15:58:08.691Z,13.25
2023-05-04T16:00:37.688Z,22.10
2023-05-04T16:03:07.365Z,14.35
2023-05-04T16:05:36.414Z,19.30
2023-05-04T16:08:05.184Z,9.18
2023-05-04T16:10:34.571Z,27.02
2023-05-04T16:13:04.753Z,17.80
2023-05-04T16:15:33.338Z,21.65
2023-05-04T16:18:02.414Z,19.38
2023-05-04T16:20:31.380Z,17.13
2023-05-04T16:23:00.127Z,24.50
2023-05-04T16:25:29.079Z,16.15
2023-05-04T16:27:57.943Z,17.65
2023-05-04T16:30:33.486Z,15.25
2023-05-04T16:33:05.311Z,10.35
2023-05-04T16:35:34.018Z,18.85
2023-05-04T16:38:02.942Z,14.18
2023-05-04T16:40:34.730Z,17.00
2023-05-04T16:43:03.373Z,13.00
2023-05-04T16:45:33.172Z,21.45
2023-05-04T16:48:02.362Z,23.98
2023-05-04T16:50:30.581Z,16.60
2023-05-04T16:53:00.169Z,26.52
2023-05-04T16:55:28.770Z,20.52
2023-05-04T16:58:00.934Z,31.75
2023-05-04T17:00:30.818Z,25.58
2023-05-04T17:02:59.463Z,20.80
2023-05-04T17:05:28.206Z,19.08
2023-05-04T17:07:56.811Z,22.98
2023-05-04T17:10:26.507Z,22.15
2023-05-04T17:12:56.400Z,27.40
2023-05-04T17:15:25.053Z,20.73
2023-05-04T17:17:53.781Z,18.42
2023-05-04T17:20:23.185Z,13.60
2023-05-04T17:22:53.215Z,12.57
2023-05-04T17:25:23.108Z,14.38
2023-05-04T17:27:51.814Z,13.10
2023-05-04T17:30:20.478Z,14.27
2023-05-04T17:32:50.002Z,22.58
2023-05-04T17:35:25.150Z,18.65
2023-05-04T17:37:59.169Z,19.77
2023-05-04T17:40:28.928Z,14.90
2023-05-04T17:42:58.249Z,18.75
2023-05-04T17:45:27.143Z,30.48
2023-05-04T17:47:55.461Z,9.43
2023-05-04T17:50:23.810Z,25.65
2023-05-04T17:52:57.156Z,11.93
2023-05-04T17:55:25.987Z,20.30
2023-05-04T17:57:55.956Z,17.42
2023-05-04T18:00:25.119Z,13.23
2023-05-04T18:02:53.741Z,11.25
2023-05-04T18:05:22.488Z,16.90
2023-05-04T18:07:51.359Z,14.02
2023-05-04T18:10:19.976Z,13.95
2023-05-04T18:12:48.949Z,11.63
2023-05-04T18:15:19.275Z,8.88
2023-05-04T18:17:48.022Z,11.52
2023-05-04T18:20:17.172Z,11.00
2023-05-04T18:22:46.934Z,13.10
2023-05-04T18:25:16.419Z,10.15
2023-05-04T18:27:46.209Z,14.65
2023-05-04T18:30:14.624Z,15.27
2023-05-04T18:32:43.270Z,13.13
2023-05-04T18:35:12.033Z,6.80
2023-05-04T18:37:40.773Z,10.98
2023-05-04T18:40:10.325Z,6.93
2023-05-04T18:42:39.053Z,9.82
2023-05-04T18:45:08.527Z,10.65
2023-05-04T18:47:37.100Z,6.65
2023-05-04T18:50:06.177Z,3.45
2023-05-04T18:52:35.659Z,4.82
2023-05-04T18:55:04.309Z,5.35
2023-05-04T18:57:33.264Z,14.73
2023-05-04T19:00:02.435Z,7.28
2023-05-04T19:02:31.413Z,5.03
2023-05-04T19:05:00.083Z,8.82
2023-05-04T19:07:28.784Z,15.25
2023-05-04T19:09:57.394Z,6.63
2023-05-04T19:12:26.033Z,10.68
2023-05-04T19:14:54.600Z,9.35
2023-05-04T19:17:24.026Z,12.65
2023-05-04T19:19:53.145Z,7.05
2023-05-04T19:22:21.885Z,5.57
2023-05-04T19:24:53.802Z,6.35
2023-05-04T19:29:50.350Z,9.35
2023-05-04T19:32:24.138Z,7.68
2023-05-04T19:34:54.327Z,7.82
2023-05-04T19:37:22.593Z,6.45
2023-05-04T19:39:51.480Z,9.00
2023-05-04T19:42:20.150Z,7.05
2023-05-04T19:44:48.843Z,10.70
2023-05-04T19:47:18.250Z,10.55
2023-05-04T19:49:49.943Z,8.50
2023-05-04T19:52:18.822Z,4.60
2023-05-04T19:54:49.386Z,10.55
2023-05-04T19:57:18.379Z,7.68
2023-05-04T19:59:47.441Z,10.80
2023-05-04T20:02:16.424Z,11.13
2023-05-04T20:04:45.037Z,15.73
2023-05-04T20:07:13.317Z,9.75
2023-05-04T20:09:41.566Z,14.73
2023-05-04T20:12:10.257Z,11.77
2023-05-04T20:14:38.799Z,8.80
2023-05-04T20:17:07.999Z,11.07
2023-05-04T20:19:37.459Z,9.20
2023-05-04T20:22:06.176Z,6.90
2023-05-04T20:24:34.490Z,12.05
2023-05-04T20:27:03.189Z,15.00
2023-05-04T20:29:31.814Z,9.88
2023-05-04T20:32:02.466Z,7.10
2023-05-04T20:34:31.117Z,8.95
2023-05-04T20:36:59.398Z,10.48
2023-05-04T20:39:28.214Z,11.38
2023-05-04T20:41:56.497Z,12.20
2023-05-04T20:44:25.073Z,10.77
2023-05-04T20:46:53.666Z,10.68
2023-05-04T20:49:22.238Z,13.13
2023-05-04T20:51:50.887Z,9.38
2023-05-04T20:54:19.410Z,10.05
2023-05-04T20:56:47.992Z,14.13
2023-05-04T20:59:16.782Z,12.93
2023-05-04T21:01:45.520Z,10.30
2023-05-04T21:04:14.826Z,6.15
2023-05-04T21:06:44.367Z,8.80
2023-05-04T21:09:14.247Z,14.02
2023-05-04T21:11:42.871Z,10.98
2023-05-04T21:14:11.430Z,6.53
2023-05-04T21:16:40.062Z,11.90
2023-05-04T21:19:08.721Z,6.43
2023-05-04T21:21:41.668Z,10.15
2023-05-04T21:24:16.535Z,10.50
2023-05-04T21:26:46.375Z,12.60
2023-05-04T21:29:15.147Z,7.10
2023-05-04T21:31:43.933Z,5.43
2023-05-04T21:34:12.680Z,13.30
2023-05-04T21:36:41.800Z,11.88
2023-05-04T21:39:10.562Z,8.20
2023-05-04T21:41:40.330Z,12.32
2023-05-04T21:44:08.910Z,13.52
2023-05-04T21:46:37.273Z,8.65
2023-05-04T21:49:05.522Z,12.27
2023-05-04T21:51:33.657Z,9.25
2023-05-04T21:54:03.063Z,13.68
2023-05-04T21:56:32.842Z,14.35
2023-05-04T21:59:01.431Z,11.55
2023-05-04T22:01:30.461Z,10.30
2023-05-04T22:03:59.146Z,5.85
2023-05-04T22:06:28.567Z,8.07
2023-05-04T22:08:56.877Z,7.13
2023-05-04T22:11:25.552Z,8.38
2023-05-04T22:13:53.602Z,18.00
2023-05-04T22:22:06.571Z,13.15
2023-05-04T22:24:35.052Z,10.02
2023-05-04T22:27:04.831Z,11.27
2023-05-04T22:29:36.671Z,13.52
2023-05-04T22:32:05.152Z,11.73
2023-05-04T22:34:33.572Z,9.82
2023-05-04T22:37:02.766Z,9.75
2023-05-04T22:39:31.502Z,10.95
2023-05-04T22:42:00.232Z,4.50
2023-05-04T22:44:28.888Z,7.30
2023-05-04T22:46:57.447Z,8.27
2023-05-04T22:49:26.106Z,11.45
2023-05-04T22:51:54.743Z,6.88
2023-05-04T22:54:23.496Z,8.98
2023-05-04T22:56:52.340Z,8.27
2023-05-04T22:59:21.109Z,11.10
2023-05-04T23:01:52.387Z,6.88
2023-05-04T23:04:21.251Z,8.15
2023-05-04T23:06:49.845Z,10.98
2023-05-04T23:09:18.960Z,8.90
2023-05-04T23:11:48.152Z,12.40
2023-05-04T23:14:16.750Z,8.07
2023-05-04T23:16:44.701Z,13.25
2023-05-04T23:19:13.737Z,6.20
2023-05-04T23:21:42.463Z,13.00
2023-05-04T23:24:10.843Z,11.38
2023-05-04T23:26:39.225Z,13.00
2023-05-04T23:29:07.839Z,7.75
2023-05-04T23:31:36.535Z,14.50
2023-05-04T23:34:05.219Z,9.13
2023-05-04T23:36:33.434Z,9.15
2023-05-04T23:39:02.046Z,13.38
2023-05-04T23:41:30.409Z,9.13
2023-05-04T23:44:02.063Z,7.53
2023-05-04T23:46:30.710Z,12.77
2023-05-04T23:48:59.338Z,10.25
2023-05-04T23:51:29.962Z,10.77
2023-05-04T23:53:58.816Z,8.90
2023-05-04T23:56:27.382Z,10.05
2023-05-04T23:58:56.706Z,9.45
